sensor_id;sensor_type;location;lat;lon;timestamp;P1;durP1;ratioP1;P2;durP2;ratioP2
55212;SDS011;41083;52.932;6.674;2023-05-07T00:02:20;13.07;;;6.00;;
55212;SDS011;41083;52.932;6.674;2023-05-07T00:04:47;8.90;;;4.63;;
55212;SDS011;41083;52.932;6.674;2023-05-07T00:07:13;11.90;;;5.10;;
55212;SDS011;41083;52.932;6.674;2023-05-07T00:09:39;12.32;;;5.75;;
55212;SDS011;41083;52.932;6.674;2023-05-07T00:12:05;11.43;;;5.50;;
55212;SDS011;41083;52.932;6.674;2023-05-07T00:14:31;12.85;;;5.80;;
55212;SDS011;41083;52.932;6.674;2023-05-07T00:16:56;11.38;;;5.35;;
55212;SDS011;41083;52.932;6.674;2023-05-07T00:19:22;13.02;;;5.90;;
55212;SDS011;41083;52.932;6.674;2023-05-07T00:21:48;13.60;;;5.55;;
55212;SDS011;41083;52.932;6.674;2023-05-07T00:24:13;10.90;;;5.60;;
55212;SDS011;41083;52.932;6.674;2023-05-07T00:26:40;13.63;;;5.72;;
55212;SDS011;41083;52.932;6.674;2023-05-07T00:29:06;12.95;;;5.85;;
55212;SDS011;41083;52.932;6.674;2023-05-07T00:31:32;12.95;;;5.95;;
55212;SDS011;41083;52.932;6.674;2023-05-07T00:33:57;11.13;;;5.72;;
55212;SDS011;41083;52.932;6.674;2023-05-07T00:36:23;12.32;;;6.07;;
55212;SDS011;41083;52.932;6.674;2023-05-07T00:38:48;14.80;;;6.07;;
55212;SDS011;41083;52.932;6.674;2023-05-07T00:41:14;13.20;;;6.35;;
55212;SDS011;41083;52.932;6.674;2023-05-07T00:43:40;14.38;;;6.15;;
55212;SDS011;41083;52.932;6.674;2023-05-07T00:46:06;14.27;;;6.43;;
55212;SDS011;41083;52.932;6.674;2023-05-07T00:48:31;15.02;;;6.32;;
55212;SDS011;41083;52.932;6.674;2023-05-07T00:50:57;11.30;;;5.82;;
55212;SDS011;41083;52.932;6.674;2023-05-07T00:53:23;11.30;;;5.25;;
55212;SDS011;41083;52.932;6.674;2023-05-07T00:55:48;13.60;;;6.45;;
55212;SDS011;41083;52.932;6.674;2023-05-07T00:58:14;13.82;;;6.03;;
55212;SDS011;41083;52.932;6.674;2023-05-07T01:00:40;13.43;;;5.78;;
55212;SDS011;41083;52.932;6.674;2023-05-07T01:03:06;17.95;;;7.00;;
55212;SDS011;41083;52.932;6.674;2023-05-07T01:05:32;13.85;;;6.55;;
55212;SDS011;41083;52.932;6.674;2023-05-07T01:07:58;14.82;;;6.18;;
55212;SDS011;41083;52.932;6.674;2023-05-07T01:10:25;11.30;;;5.72;;
55212;SDS011;41083;52.932;6.674;2023-05-07T01:12:51;11.80;;;6.05;;
55212;SDS011;41083;52.932;6.674;2023-05-07T01:15:18;14.27;;;6.75;;
55212;SDS011;41083;52.932;6.674;2023-05-07T01:17:43;16.38;;;6.05;;
55212;SDS011;41083;52.932;6.674;2023-05-07T01:20:10;15.90;;;6.72;;
55212;SDS011;41083;52.932;6.674;2023-05-07T01:22:37;13.40;;;6.68;;
55212;SDS011;41083;52.932;6.674;2023-05-07T01:25:04;13.40;;;6.88;;
55212;SDS011;41083;52.932;6.674;2023-05-07T01:27:30;15.05;;;6.85;;
55212;SDS011;41083;52.932;6.674;2023-05-07T01:29:56;14.00;;;6.85;;
55212;SDS011;41083;52.932;6.674;2023-05-07T01:32:25;14.27;;;5.78;;
55212;SDS011;41083;52.932;6.674;2023-05-07T01:34:58;13.02;;;6.70;;
55212;SDS011;41083;52.932;6.674;2023-05-07T01:37:26;13.90;;;6.72;;
55212;SDS011;41083;52.932;6.674;2023-05-07T01:39:52;16.88;;;6.65;;
55212;SDS011;41083;52.932;6.674;2023-05-07T01:42:18;13.68;;;6.50;;
55212;SDS011;41083;52.932;6.674;2023-05-07T01:44:44;13.32;;;6.53;;
55212;SDS011;41083;52.932;6.674;2023-05-07T01:47:10;14.50;;;6.65;;
55212;SDS011;41083;52.932;6.674;2023-05-07T01:49:36;14.63;;;6.38;;
55212;SDS011;41083;52.932;6.674;2023-05-07T01:52:02;16.08;;;6.60;;
55212;SDS011;41083;52.932;6.674;2023-05-07T01:54:28;14.82;;;6.40;;
55212;SDS011;41083;52.932;6.674;2023-05-07T01:56:55;15.88;;;7.10;;
55212;SDS011;41083;52.932;6.674;2023-05-07T01:59:21;18.38;;;6.78;;
55212;SDS011;41083;52.932;6.674;2023-05-07T02:01:47;16.88;;;7.30;;
55212;SDS011;41083;52.932;6.674;2023-05-07T02:04:13;15.32;;;7.28;;
55212;SDS011;41083;52.932;6.674;2023-05-07T02:06:39;18.65;;;7.15;;
55212;SDS011;41083;52.932;6.674;2023-05-07T02:09:04;13.60;;;7.13;;
55212;SDS011;41083;52.932;6.674;2023-05-07T02:11:30;16.83;;;7.70;;
55212;SDS011;41083;52.932;6.674;2023-05-07T02:13:56;17.70;;;7.75;;
55212;SDS011;41083;52.932;6.674;2023-05-07T02:16:21;19.10;;;7.50;;
55212;SDS011;41083;52.932;6.674;2023-05-07T02:18:48;19.63;;;7.53;;
55212;SDS011;41083;52.932;6.674;2023-05-07T02:21:13;17.58;;;7.45;;
55212;SDS011;41083;52.932;6.674;2023-05-07T02:23:39;17.30;;;7.93;;
55212;SDS011;41083;52.932;6.674;2023-05-07T02:26:05;15.98;;;6.82;;
55212;SDS011;41083;52.932;6.674;2023-05-07T02:28:31;12.40;;;6.35;;
55212;SDS011;41083;52.932;6.674;2023-05-07T02:30:56;20.35;;;7.85;;
55212;SDS011;41083;52.932;6.674;2023-05-07T02:33:23;15.15;;;7.97;;
55212;SDS011;41083;52.932;6.674;2023-05-07T02:35:49;17.52;;;7.60;;
55212;SDS011;41083;52.932;6.674;2023-05-07T02:38:16;19.85;;;7.88;;
55212;SDS011;41083;52.932;6.674;2023-05-07T02:40:42;17.63;;;9.05;;
55212;SDS011;41083;52.932;6.674;2023-05-07T02:43:08;18.50;;;8.60;;
55212;SDS011;41083;52.932;6.674;2023-05-07T02:45:34;19.40;;;8.65;;
55212;SDS011;41083;52.932;6.674;2023-05-07T02:47:59;18.58;;;8.00;;
55212;SDS011;41083;52.932;6.674;2023-05-07T02:50:25;21.88;;;8.25;;
55212;SDS011;41083;52.932;6.674;2023-05-07T02:52:52;18.65;;;8.38;;
55212;SDS011;41083;52.932;6.674;2023-05-07T02:55:17;21.55;;;9.32;;
55212;SDS011;41083;52.932;6.674;2023-05-07T02:57:43;23.92;;;10.10;;
55212;SDS011;41083;52.932;6.674;2023-05-07T03:02:42;20.70;;;8.48;;
55212;SDS011;41083;52.932;6.674;2023-05-07T03:05:11;20.67;;;9.55;;
55212;SDS011;41083;52.932;6.674;2023-05-07T03:07:37;23.02;;;8.73;;
55212;SDS011;41083;52.932;6.674;2023-05-07T03:10:03;26.35;;;9.68;;
55212;SDS011;41083;52.932;6.674;2023-05-07T03:12:30;23.50;;;10.15;;
55212;SDS011;41083;52.932;6.674;2023-05-07T03:14:56;26.73;;;8.80;;
55212;SDS011;41083;52.932;6.674;2023-05-07T03:17:21;28.98;;;9.82;;
55212;SDS011;41083;52.932;6.674;2023-05-07T03:19:47;22.33;;;8.85;;
55212;SDS011;41083;52.932;6.674;2023-05-07T03:22:13;25.67;;;9.27;;
55212;SDS011;41083;52.932;6.674;2023-05-07T03:24:39;23.98;;;9.10;;
55212;SDS011;41083;52.932;6.674;2023-05-07T03:27:05;28.15;;;9.63;;
55212;SDS011;41083;52.932;6.674;2023-05-07T03:29:30;24.80;;;9.20;;
55212;SDS011;41083;52.932;6.674;2023-05-07T03:31:56;24.45;;;9.40;;
55212;SDS011;41083;52.932;6.674;2023-05-07T03:34:21;22.98;;;9.48;;
55212;SDS011;41083;52.932;6.674;2023-05-07T03:36:50;25.35;;;9.43;;
55212;SDS011;41083;52.932;6.674;2023-05-07T03:39:16;24.48;;;9.68;;
55212;SDS011;41083;52.932;6.674;2023-05-07T03:41:42;23.20;;;9.55;;
55212;SDS011;41083;52.932;6.674;2023-05-07T03:44:07;23.77;;;9.15;;
55212;SDS011;41083;52.932;6.674;2023-05-07T03:46:33;28.00;;;10.05;;
55212;SDS011;41083;52.932;6.674;2023-05-07T03:48:59;21.88;;;8.82;;
55212;SDS011;41083;52.932;6.674;2023-05-07T03:51:25;22.13;;;9.93;;
55212;SDS011;41083;52.932;6.674;2023-05-07T03:53:51;25.80;;;10.07;;
55212;SDS011;41083;52.932;6.674;2023-05-07T03:56:18;22.08;;;9.60;;
55212;SDS011;41083;52.932;6.674;2023-05-07T03:58:44;24.42;;;9.95;;
55212;SDS011;41083;52.932;6.674;2023-05-07T04:01:09;21.80;;;8.90;;
55212;SDS011;41083;52.932;6.674;2023-05-07T04:03:35;22.98;;;9.35;;
55212;SDS011;41083;52.932;6.674;2023-05-07T04:06:01;23.55;;;8.88;;
55212;SDS011;41083;52.932;6.674;2023-05-07T04:08:26;24.35;;;8.85;;
55212;SDS011;41083;52.932;6.674;2023-05-07T04:10:55;18.75;;;7.53;;
55212;SDS011;41083;52.932;6.674;2023-05-07T04:13:22;22.25;;;9.10;;
55212;SDS011;41083;52.932;6.674;2023-05-07T04:15:47;18.45;;;8.57;;
55212;SDS011;41083;52.932;6.674;2023-05-07T04:18:14;17.40;;;7.97;;
55212;SDS011;41083;52.932;6.674;2023-05-07T04:20:40;19.38;;;8.68;;
55212;SDS011;41083;52.932;6.674;2023-05-07T04:23:06;17.15;;;7.68;;
55212;SDS011;41083;52.932;6.674;2023-05-07T04:25:32;20.15;;;9.10;;
55212;SDS011;41083;52.932;6.674;2023-05-07T04:27:58;19.45;;;9.23;;
55212;SDS011;41083;52.932;6.674;2023-05-07T04:30:23;16.92;;;8.13;;
55212;SDS011;41083;52.932;6.674;2023-05-07T04:32:49;21.73;;;8.80;;
55212;SDS011;41083;52.932;6.674;2023-05-07T04:35:15;18.65;;;8.50;;
55212;SDS011;41083;52.932;6.674;2023-05-07T04:37:40;18.90;;;8.27;;
55212;SDS011;41083;52.932;6.674;2023-05-07T04:40:06;23.30;;;8.70;;
55212;SDS011;41083;52.932;6.674;2023-05-07T04:42:32;19.02;;;8.00;;
55212;SDS011;41083;52.932;6.674;2023-05-07T04:44:58;19.73;;;8.10;;
55212;SDS011;41083;52.932;6.674;2023-05-07T04:47:23;21.15;;;8.90;;
55212;SDS011;41083;52.932;6.674;2023-05-07T04:49:49;19.30;;;8.15;;
55212;SDS011;41083;52.932;6.674;2023-05-07T04:52:14;19.83;;;8.80;;
55212;SDS011;41083;52.932;6.674;2023-05-07T04:54:40;17.85;;;8.40;;
55212;SDS011;41083;52.932;6.674;2023-05-07T04:57:06;18.30;;;8.98;;
55212;SDS011;41083;52.932;6.674;2023-05-07T04:59:32;18.17;;;8.40;;
55212;SDS011;41083;52.932;6.674;2023-05-07T05:01:57;15.10;;;7.28;;
55212;SDS011;41083;52.932;6.674;2023-05-07T05:04:23;16.52;;;7.50;;
55212;SDS011;41083;52.932;6.674;2023-05-07T05:06:49;16.73;;;7.30;;
55212;SDS011;41083;52.932;6.674;2023-05-07T05:09:14;15.85;;;7.47;;
55212;SDS011;41083;52.932;6.674;2023-05-07T05:11:41;18.40;;;7.68;;
55212;SDS011;41083;52.932;6.674;2023-05-07T05:14:06;19.38;;;7.22;;
55212;SDS011;41083;52.932;6.674;2023-05-07T05:16:32;18.77;;;7.88;;
55212;SDS011;41083;52.932;6.674;2023-05-07T05:18:58;16.33;;;7.55;;
55212;SDS011;41083;52.932;6.674;2023-05-07T05:21:24;19.38;;;9.20;;
55212;SDS011;41083;52.932;6.674;2023-05-07T05:23:50;13.38;;;6.82;;
55212;SDS011;41083;52.932;6.674;2023-05-07T05:26:15;18.98;;;7.75;;
55212;SDS011;41083;52.932;6.674;2023-05-07T05:28:41;18.48;;;8.27;;
55212;SDS011;41083;52.932;6.674;2023-05-07T05:31:06;15.75;;;7.10;;
55212;SDS011;41083;52.932;6.674;2023-05-07T05:33:32;16.88;;;7.53;;
55212;SDS011;41083;52.932;6.674;2023-05-07T05:35:58;16.10;;;7.63;;
55212;SDS011;41083;52.932;6.674;2023-05-07T05:38:23;17.25;;;7.55;;
55212;SDS011;41083;52.932;6.674;2023-05-07T05:40:49;15.23;;;7.63;;
55212;SDS011;41083;52.932;6.674;2023-05-07T05:43:14;16.45;;;8.27;;
55212;SDS011;41083;52.932;6.674;2023-05-07T05:45:40;18.77;;;8.32;;
55212;SDS011;41083;52.932;6.674;2023-05-07T05:48:05;18.25;;;7.60;;
55212;SDS011;41083;52.932;6.674;2023-05-07T05:50:31;16.10;;;7.03;;
55212;SDS011;41083;52.932;6.674;2023-05-07T05:52:57;19.35;;;8.50;;
55212;SDS011;41083;52.932;6.674;2023-05-07T05:55:22;15.63;;;7.60;;
55212;SDS011;41083;52.932;6.674;2023-05-07T05:57:48;18.95;;;7.80;;
55212;SDS011;41083;52.932;6.674;2023-05-07T06:00:15;16.73;;;7.53;;
55212;SDS011;41083;52.932;6.674;2023-05-07T06:02:41;16.40;;;8.15;;
55212;SDS011;41083;52.932;6.674;2023-05-07T06:05:07;20.23;;;7.85;;
55212;SDS011;41083;52.932;6.674;2023-05-07T06:07:33;15.20;;;6.93;;
55212;SDS011;41083;52.932;6.674;2023-05-07T06:10:00;15.52;;;7.68;;
55212;SDS011;41083;52.932;6.674;2023-05-07T06:12:26;18.58;;;7.03;;
55212;SDS011;41083;52.932;6.674;2023-05-07T06:14:51;19.55;;;7.82;;
55212;SDS011;41083;52.932;6.674;2023-05-07T06:17:17;17.38;;;7.60;;
55212;SDS011;41083;52.932;6.674;2023-05-07T06:19:43;17.75;;;7.93;;
55212;SDS011;41083;52.932;6.674;2023-05-07T06:22:09;15.65;;;7.70;;
55212;SDS011;41083;52.932;6.674;2023-05-07T06:24:34;20.15;;;8.73;;
55212;SDS011;41083;52.932;6.674;2023-05-07T06:27:00;16.50;;;8.00;;
55212;SDS011;41083;52.932;6.674;2023-05-07T06:29:26;15.88;;;7.47;;
55212;SDS011;41083;52.932;6.674;2023-05-07T06:31:54;16.88;;;8.05;;
55212;SDS011;41083;52.932;6.674;2023-05-07T06:34:20;20.10;;;8.20;;
55212;SDS011;41083;52.932;6.674;2023-05-07T06:36:46;17.70;;;7.97;;
55212;SDS011;41083;52.932;6.674;2023-05-07T06:39:11;19.25;;;8.07;;
55212;SDS011;41083;52.932;6.674;2023-05-07T06:41:37;16.08;;;7.30;;
55212;SDS011;41083;52.932;6.674;2023-05-07T06:44:03;19.42;;;8.95;;
55212;SDS011;41083;52.932;6.674;2023-05-07T06:46:30;18.58;;;7.63;;
55212;SDS011;41083;52.932;6.674;2023-05-07T06:48:55;21.77;;;8.30;;
55212;SDS011;41083;52.932;6.674;2023-05-07T06:51:22;18.70;;;7.43;;
55212;SDS011;41083;52.932;6.674;2023-05-07T06:53:48;20.45;;;7.95;;
55212;SDS011;41083;52.932;6.674;2023-05-07T06:56:13;21.58;;;7.90;;
55212;SDS011;41083;52.932;6.674;2023-05-07T06:58:39;18.88;;;8.35;;
55212;SDS011;41083;52.932;6.674;2023-05-07T07:01:05;19.90;;;8.18;;
55212;SDS011;41083;52.932;6.674;2023-05-07T07:03:30;17.55;;;8.63;;
55212;SDS011;41083;52.932;6.674;2023-05-07T07:05:56;18.88;;;7.35;;
55212;SDS011;41083;52.932;6.674;2023-05-07T07:08:22;18.77;;;8.77;;
55212;SDS011;41083;52.932;6.674;2023-05-07T07:10:47;17.10;;;7.63;;
55212;SDS011;41083;52.932;6.674;2023-05-07T07:13:13;18.77;;;8.10;;
55212;SDS011;41083;52.932;6.674;2023-05-07T07:15:39;16.55;;;8.50;;
55212;SDS011;41083;52.932;6.674;2023-05-07T07:18:05;19.92;;;8.65;;
55212;SDS011;41083;52.932;6.674;2023-05-07T07:20:31;17.23;;;8.25;;
55212;SDS011;41083;52.932;6.674;2023-05-07T07:22:56;17.85;;;7.97;;
55212;SDS011;41083;52.932;6.674;2023-05-07T07:25:22;19.65;;;8.30;;
55212;SDS011;41083;52.932;6.674;2023-05-07T07:27:48;19.58;;;9.30;;
55212;SDS011;41083;52.932;6.674;2023-05-07T07:30:15;20.95;;;8.00;;
55212;SDS011;41083;52.932;6.674;2023-05-07T07:32:40;20.60;;;8.52;;
55212;SDS011;41083;52.932;6.674;2023-05-07T07:35:06;17.45;;;8.00;;
55212;SDS011;41083;52.932;6.674;2023-05-07T07:37:32;18.00;;;8.30;;
55212;SDS011;41083;52.932;6.674;2023-05-07T07:39:58;18.63;;;8.30;;
55212;SDS011;41083;52.932;6.674;2023-05-07T07:42:23;23.15;;;8.50;;
55212;SDS011;41083;52.932;6.674;2023-05-07T07:44:49;21.77;;;8.50;;
55212;SDS011;41083;52.932;6.674;2023-05-07T07:47:15;21.90;;;8.60;;
55212;SDS011;41083;52.932;6.674;2023-05-07T07:49:40;23.60;;;9.02;;
55212;SDS011;41083;52.932;6.674;2023-05-07T07:52:06;22.27;;;8.75;;
55212;SDS011;41083;52.932;6.674;2023-05-07T07:54:31;22.95;;;9.32;;
55212;SDS011;41083;52.932;6.674;2023-05-07T07:56:57;20.23;;;8.60;;
55212;SDS011;41083;52.932;6.674;2023-05-07T07:59:23;22.23;;;9.05;;
55212;SDS011;41083;52.932;6.674;2023-05-07T08:01:49;21.00;;;8.95;;
55212;SDS011;41083;52.932;6.674;2023-05-07T08:04:15;21.88;;;8.48;;
55212;SDS011;41083;52.932;6.674;2023-05-07T08:06:41;22.55;;;8.73;;
55212;SDS011;41083;52.932;6.674;2023-05-07T08:09:07;21.05;;;9.18;;
55212;SDS011;41083;52.932;6.674;2023-05-07T08:11:33;20.67;;;8.43;;
55212;SDS011;41083;52.932;6.674;2023-05-07T08:13:59;20.75;;;8.27;;
55212;SDS011;41083;52.932;6.674;2023-05-07T08:16:25;17.55;;;7.32;;
55212;SDS011;41083;52.932;6.674;2023-05-07T08:18:50;21.75;;;8.70;;
55212;SDS011;41083;52.932;6.674;2023-05-07T08:21:16;19.55;;;7.82;;
55212;SDS011;41083;52.932;6.674;2023-05-07T08:23:42;19.75;;;8.02;;
55212;SDS011;41083;52.932;6.674;2023-05-07T08:26:08;17.75;;;7.65;;
55212;SDS011;41083;52.932;6.674;2023-05-07T08:28:33;20.90;;;8.55;;
55212;SDS011;41083;52.932;6.674;2023-05-07T08:30:59;19.65;;;8.27;;
55212;SDS011;41083;52.932;6.674;2023-05-07T08:33:26;20.20;;;8.38;;
55212;SDS011;41083;52.932;6.674;2023-05-07T08:35:51;22.20;;;9.57;;
55212;SDS011;41083;52.932;6.674;2023-05-07T08:38:17;20.98;;;9.18;;
55212;SDS011;41083;52.932;6.674;2023-05-07T08:40:43;22.27;;;9.13;;
55212;SDS011;41083;52.932;6.674;2023-05-07T08:43:10;19.92;;;8.52;;
55212;SDS011;41083;52.932;6.674;2023-05-07T08:45:37;19.25;;;8.38;;
55212;SDS011;41083;52.932;6.674;2023-05-07T08:48:07;19.17;;;8.48;;
55212;SDS011;41083;52.932;6.674;2023-05-07T08:50:35;22.63;;;8.75;;
55212;SDS011;41083;52.932;6.674;2023-05-07T08:53:04;19.85;;;8.88;;
55212;SDS011;41083;52.932;6.674;2023-05-07T08:55:30;21.75;;;8.75;;
55212;SDS011;41083;52.932;6.674;2023-05-07T08:57:56;23.13;;;8.82;;
55212;SDS011;41083;52.932;6.674;2023-05-07T09:00:22;23.52;;;9.52;;
55212;SDS011;41083;52.932;6.674;2023-05-07T09:02:47;20.70;;;8.73;;
55212;SDS011;41083;52.932;6.674;2023-05-07T09:05:13;22.83;;;9.15;;
55212;SDS011;41083;52.932;6.674;2023-05-07T09:07:39;20.05;;;8.32;;
55212;SDS011;41083;52.932;6.674;2023-05-07T09:10:05;16.95;;;7.80;;
55212;SDS011;41083;52.932;6.674;2023-05-07T09:12:31;20.75;;;8.40;;
55212;SDS011;41083;52.932;6.674;2023-05-07T09:14:57;21.90;;;8.35;;
55212;SDS011;41083;52.932;6.674;2023-05-07T09:17:24;17.42;;;8.10;;
55212;SDS011;41083;52.932;6.674;2023-05-07T09:19:50;16.95;;;8.10;;
55212;SDS011;41083;52.932;6.674;2023-05-07T09:22:15;22.23;;;8.75;;
55212;SDS011;41083;52.932;6.674;2023-05-07T09:24:45;17.38;;;8.10;;
55212;SDS011;41083;52.932;6.674;2023-05-07T09:27:16;19.48;;;9.10;;
55212;SDS011;41083;52.932;6.674;2023-05-07T09:29:43;18.02;;;7.65;;
55212;SDS011;41083;52.932;6.674;2023-05-07T09:32:09;18.63;;;8.63;;
55212;SDS011;41083;52.932;6.674;2023-05-07T09:34:35;20.80;;;8.77;;
55212;SDS011;41083;52.932;6.674;2023-05-07T09:37:05;18.40;;;8.20;;
55212;SDS011;41083;52.932;6.674;2023-05-07T09:39:45;16.60;;;7.70;;
55212;SDS011;41083;52.932;6.674;2023-05-07T09:42:13;17.58;;;8.25;;
55212;SDS011;41083;52.932;6.674;2023-05-07T09:44:43;18.70;;;8.07;;
55212;SDS011;41083;52.932;6.674;2023-05-07T09:47:10;21.98;;;8.70;;
55212;SDS011;41083;52.932;6.674;2023-05-07T09:49:39;15.60;;;7.32;;
55212;SDS011;41083;52.932;6.674;2023-05-07T09:52:07;15.82;;;7.72;;
55212;SDS011;41083;52.932;6.674;2023-05-07T09:54:35;17.55;;;8.40;;
55212;SDS011;41083;52.932;6.674;2023-05-07T09:57:03;15.38;;;8.00;;
55212;SDS011;41083;52.932;6.674;2023-05-07T09:59:33;15.38;;;7.10;;
55212;SDS011;41083;52.932;6.674;2023-05-07T10:02:00;15.43;;;7.70;;
55212;SDS011;41083;52.932;6.674;2023-05-07T10:04:26;13.00;;;7.07;;
55212;SDS011;41083;52.932;6.674;2023-05-07T10:06:52;15.13;;;6.97;;
55212;SDS011;41083;52.932;6.674;2023-05-07T10:09:20;20.15;;;8.02;;
55212;SDS011;41083;52.932;6.674;2023-05-07T10:11:46;18.77;;;8.50;;
55212;SDS011;41083;52.932;6.674;2023-05-07T10:14:14;13.93;;;6.90;;
55212;SDS011;41083;52.932;6.674;2023-05-07T10:16:39;17.58;;;7.78;;
55212;SDS011;41083;52.932;6.674;2023-05-07T10:19:06;13.57;;;6.88;;
55212;SDS011;41083;52.932;6.674;2023-05-07T10:21:35;16.98;;;6.53;;
55212;SDS011;41083;52.932;6.674;2023-05-07T10:24:09;16.13;;;7.07;;
55212;SDS011;41083;52.932;6.674;2023-05-07T10:26:43;17.25;;;7.20;;
55212;SDS011;41083;52.932;6.674;2023-05-07T10:29:12;15.65;;;7.53;;
55212;SDS011;41083;52.932;6.674;2023-05-07T10:34:37;16.90;;;7.63;;
55212;SDS011;41083;52.932;6.674;2023-05-07T10:37:05;15.30;;;7.05;;
55212;SDS011;41083;52.932;6.674;2023-05-07T10:39:32;15.32;;;7.05;;
55212;SDS011;41083;52.932;6.674;2023-05-07T10:42:06;15.52;;;7.10;;
55212;SDS011;41083;52.932;6.674;2023-05-07T10:44:33;17.02;;;7.57;;
55212;SDS011;41083;52.932;6.674;2023-05-07T10:47:10;15.90;;;6.78;;
55212;SDS011;41083;52.932;6.674;2023-05-07T10:50:21;18.02;;;7.55;;
55212;SDS011;41083;52.932;6.674;2023-05-07T10:52:31;13.43;;;6.22;;
55212;SDS011;41083;52.932;6.674;2023-05-07T10:57:42;13.60;;;7.07;;
55212;SDS011;41083;52.932;6.674;2023-05-07T11:05:32;16.05;;;6.78;;
55212;SDS011;41083;52.932;6.674;2023-05-07T11:07:59;14.73;;;6.82;;
55212;SDS011;41083;52.932;6.674;2023-05-07T11:16:22;17.70;;;7.68;;
55212;SDS011;41083;52.932;6.674;2023-05-07T11:18:50;16.08;;;7.20;;
55212;SDS011;41083;52.932;6.674;2023-05-07T11:21:31;14.90;;;7.50;;
55212;SDS011;41083;52.932;6.674;2023-05-07T11:23:58;16.05;;;7.65;;
55212;SDS011;41083;52.932;6.674;2023-05-07T11:26:25;16.38;;;7.10;;
55212;SDS011;41083;52.932;6.674;2023-05-07T11:28:52;16.83;;;7.68;;
55212;SDS011;41083;52.932;6.674;2023-05-07T11:31:22;15.98;;;7.50;;
55212;SDS011;41083;52.932;6.674;2023-05-07T11:33:49;15.07;;;8.02;;
55212;SDS011;41083;52.932;6.674;2023-05-07T11:36:15;16.42;;;7.93;;
55212;SDS011;41083;52.932;6.674;2023-05-07T11:38:41;16.08;;;7.68;;
55212;SDS011;41083;52.932;6.674;2023-05-07T11:41:07;15.52;;;7.20;;
55212;SDS011;41083;52.932;6.674;2023-05-07T11:43:33;17.00;;;6.75;;
55212;SDS011;41083;52.932;6.674;2023-05-07T11:46:10;16.83;;;7.03;;
55212;SDS011;41083;52.932;6.674;2023-05-07T11:48:37;16.98;;;7.25;;
55212;SDS011;41083;52.932;6.674;2023-05-07T11:51:04;13.75;;;6.70;;
55212;SDS011;41083;52.932;6.674;2023-05-07T11:53:37;13.98;;;6.97;;
55212;SDS011;41083;52.932;6.674;2023-05-07T11:56:12;14.00;;;6.53;;
55212;SDS011;41083;52.932;6.674;2023-05-07T11:58:39;13.75;;;7.03;;
55212;SDS011;41083;52.932;6.674;2023-05-07T12:01:07;14.25;;;7.20;;
55212;SDS011;41083;52.932;6.674;2023-05-07T12:03:34;16.27;;;7.28;;
55212;SDS011;41083;52.932;6.674;2023-05-07T12:06:02;13.63;;;7.00;;
55212;SDS011;41083;52.932;6.674;2023-05-07T12:08:30;14.07;;;7.70;;
55212;SDS011;41083;52.932;6.674;2023-05-07T12:10:55;15.02;;;7.40;;
55212;SDS011;41083;52.932;6.674;2023-05-07T12:13:22;13.15;;;7.22;;
55212;SDS011;41083;52.932;6.674;2023-05-07T12:15:54;14.43;;;7.88;;
55212;SDS011;41083;52.932;6.674;2023-05-07T12:18:21;17.02;;;8.15;;
55212;SDS011;41083;52.932;6.674;2023-05-07T12:20:48;15.10;;;7.40;;
55212;SDS011;41083;52.932;6.674;2023-05-07T12:23:14;16.92;;;7.78;;
55212;SDS011;41083;52.932;6.674;2023-05-07T12:25:41;15.48;;;7.90;;
55212;SDS011;41083;52.932;6.674;2023-05-07T12:28:14;17.63;;;7.68;;
55212;SDS011;41083;52.932;6.674;2023-05-07T12:30:44;17.02;;;7.38;;
55212;SDS011;41083;52.932;6.674;2023-05-07T12:33:12;16.00;;;8.40;;
55212;SDS011;41083;52.932;6.674;2023-05-07T12:35:42;13.52;;;7.18;;
55212;SDS011;41083;52.932;6.674;2023-05-07T12:38:12;12.90;;;7.22;;
55212;SDS011;41083;52.932;6.674;2023-05-07T12:40:45;12.55;;;7.43;;
55212;SDS011;41083;52.932;6.674;2023-05-07T12:43:23;14.82;;;7.47;;
55212;SDS011;41083;52.932;6.674;2023-05-07T12:45:51;14.00;;;7.68;;
55212;SDS011;41083;52.932;6.674;2023-05-07T12:48:24;13.93;;;7.22;;
55212;SDS011;41083;52.932;6.674;2023-05-07T12:50:55;17.90;;;8.18;;
55212;SDS011;41083;52.932;6.674;2023-05-07T12:53:22;13.80;;;6.88;;
55212;SDS011;41083;52.932;6.674;2023-05-07T12:55:51;13.07;;;7.07;;
55212;SDS011;41083;52.932;6.674;2023-05-07T12:58:19;12.30;;;6.28;;
55212;SDS011;41083;52.932;6.674;2023-05-07T13:00:49;12.38;;;6.93;;
55212;SDS011;41083;52.932;6.674;2023-05-07T13:03:29;13.55;;;6.18;;
55212;SDS011;41083;52.932;6.674;2023-05-07T13:06:00;12.77;;;6.15;;
55212;SDS011;41083;52.932;6.674;2023-05-07T13:08:28;10.68;;;5.88;;
55212;SDS011;41083;52.932;6.674;2023-05-07T13:10:57;11.70;;;6.55;;
55212;SDS011;41083;52.932;6.674;2023-05-07T13:13:25;13.88;;;5.90;;
55212;SDS011;41083;52.932;6.674;2023-05-07T13:15:50;14.40;;;6.72;;
55212;SDS011;41083;52.932;6.674;2023-05-07T13:18:16;12.23;;;6.68;;
55212;SDS011;41083;52.932;6.674;2023-05-07T13:20:42;12.70;;;6.95;;
55212;SDS011;41083;52.932;6.674;2023-05-07T13:23:08;12.10;;;6.82;;
55212;SDS011;41083;52.932;6.674;2023-05-07T13:25:34;12.70;;;6.57;;
55212;SDS011;41083;52.932;6.674;2023-05-07T13:27:59;13.35;;;6.35;;
55212;SDS011;41083;52.932;6.674;2023-05-07T13:30:25;9.48;;;6.15;;
55212;SDS011;41083;52.932;6.674;2023-05-07T13:32:51;12.73;;;5.97;;
55212;SDS011;41083;52.932;6.674;2023-05-07T13:35:20;12.57;;;6.15;;
55212;SDS011;41083;52.932;6.674;2023-05-07T13:37:46;11.48;;;6.03;;
55212;SDS011;41083;52.932;6.674;2023-05-07T13:40:13;11.63;;;5.88;;
55212;SDS011;41083;52.932;6.674;2023-05-07T13:42:38;11.38;;;5.97;;
55212;SDS011;41083;52.932;6.674;2023-05-07T13:45:04;12.07;;;5.93;;
55212;SDS011;41083;52.932;6.674;2023-05-07T13:47:31;11.63;;;5.65;;
55212;SDS011;41083;52.932;6.674;2023-05-07T13:49:56;11.13;;;6.22;;
55212;SDS011;41083;52.932;6.674;2023-05-07T13:52:22;13.30;;;6.07;;
55212;SDS011;41083;52.932;6.674;2023-05-07T13:54:47;9.43;;;5.47;;
55212;SDS011;41083;52.932;6.674;2023-05-07T13:57:13;12.10;;;6.25;;
55212;SDS011;41083;52.932;6.674;2023-05-07T13:59:40;10.50;;;6.05;;
55212;SDS011;41083;52.932;6.674;2023-05-07T14:02:05;12.00;;;5.85;;
55212;SDS011;41083;52.932;6.674;2023-05-07T14:04:31;9.85;;;5.82;;
55212;SDS011;41083;52.932;6.674;2023-05-07T14:06:57;10.13;;;5.13;;
55212;SDS011;41083;52.932;6.674;2023-05-07T14:09:22;11.02;;;6.07;;
55212;SDS011;41083;52.932;6.674;2023-05-07T14:11:48;12.23;;;6.55;;
55212;SDS011;41083;52.932;6.674;2023-05-07T14:14:16;10.00;;;5.78;;
55212;SDS011;41083;52.932;6.674;2023-05-07T14:16:42;11.95;;;5.43;;
55212;SDS011;41083;52.932;6.674;2023-05-07T14:19:08;11.55;;;6.03;;
55212;SDS011;41083;52.932;6.674;2023-05-07T14:21:33;10.27;;;6.05;;
55212;SDS011;41083;52.932;6.674;2023-05-07T14:23:59;12.98;;;6.40;;
55212;SDS011;41083;52.932;6.674;2023-05-07T14:26:25;10.40;;;6.18;;
55212;SDS011;41083;52.932;6.674;2023-05-07T14:28:52;10.70;;;6.35;;
55212;SDS011;41083;52.932;6.674;2023-05-07T14:31:19;11.05;;;6.07;;
55212;SDS011;41083;52.932;6.674;2023-05-07T14:33:45;10.45;;;6.00;;
55212;SDS011;41083;52.932;6.674;2023-05-07T14:36:11;11.20;;;6.13;;
55212;SDS011;41083;52.932;6.674;2023-05-07T14:38:37;11.80;;;5.85;;
55212;SDS011;41083;52.932;6.674;2023-05-07T14:41:03;10.38;;;6.20;;
55212;SDS011;41083;52.932;6.674;2023-05-07T14:43:28;9.45;;;5.28;;
55212;SDS011;41083;52.932;6.674;2023-05-07T14:45:54;9.57;;;5.35;;
55212;SDS011;41083;52.932;6.674;2023-05-07T14:48:20;9.57;;;5.38;;
55212;SDS011;41083;52.932;6.674;2023-05-07T14:50:48;8.00;;;5.35;;
55212;SDS011;41083;52.932;6.674;2023-05-07T14:53:14;9.00;;;5.65;;